San Antonio, FL

4:56 PM EDT on May 28, 2015 (GMT -0400)
Hernando County | | Change Station
CLOSE
Current Station
Airport
Location: Brooksville,
Elevation: 75 ft
Nearby Weather Stations

Elev 75 ft 28.47 °N, 82.45 °W | Updated 3 minutes ago

Partly Cloudy
Partly Cloudy
88 °F
Feels Like 87 °F
N
9
Wind Variable Wind from ESE

Today
High -- | Low -- °F
--% Chance of Precip.
Yesterday
High -- | Low -- °F
Precip. -- in
6:33 AM 8:19 PM
Waxing Gibbous, 78% visible
Pressure 30.06 in
Visibility 10.0 miles
Clouds Scattered Clouds 7000 ft
Heat Index 87 °F
Dew Point 59 °F
Humidity 37%
Rainfall 0.00 in
Snow Depth Not available.
UV 6 out of 12
Pollen 5.40 out of 12
Air Quality Not available.
Flu Activity Sporadic
METAR KBKV 282053Z 11008KT 10SM SCT070 31/15 A3007 RMK AO2 SLP180 T03110150 56021

More Conditions Fewer Conditions

Pressure 30.06 in
Visibility 10.0 miles
Clouds Scattered Clouds 7000 ft
Heat Index 87 °F
Dew Point 59 °F
Humidity 37%
Rainfall 0.00 in
Snow Depth Not available.
UV 6 out of 12
Pollen 5.40 out of 12
Air Quality Not available.
Flu Activity Sporadic
METAR KBKV 282053Z 11008KT 10SM SCT070 31/15 A3007 RMK AO2 SLP180 T03110150 56021

More Conditions Fewer Conditions

10-Day Weather Forecast

Almanac

Astronomy

May. 28, 2015 Rise Set
Actual Time
Civil Twilight
Nautical Twilight
Astronomical Twilight
Moon
Length of Visible Light
Length of Day
Tomorrow will be .
, % of the Moon is Illuminated

Today's Extremes

State Highs State Lows

Community

WunderPhotos

Upload Photos

1,825,060 photos uploaded!

WunderBlogs® & News

Nearby

Air Quality

  Air Quality AQ Index Pollutant
Not available.

Snow Depth

Station Depth Elevation

Earthquake Activity

City Distance Mag. Time & Date
Minimum magnitude displayed is 2.5.

Coastal Water Temperatures

Place Temperature

Stations

Nearby Weather Stations

Station Location Temp. Windchill Dew Point Humidity Wind Precip. Elev Updated Type